sensor_id;sensor_type;location;lat;lon;timestamp;P1;durP1;ratioP1;P2;durP2;ratioP2
44862;SDS011;30597;49.628;10.850;2022-12-29T00:01:46;9.53;;;7.60;;
44862;SDS011;30597;49.628;10.850;2022-12-29T00:04:13;9.17;;;8.23;;
44862;SDS011;30597;49.628;10.850;2022-12-29T00:06:41;9.10;;;8.20;;
44862;SDS011;30597;49.628;10.850;2022-12-29T00:09:07;9.50;;;8.60;;
44862;SDS011;30597;49.628;10.850;2022-12-29T00:11:33;9.03;;;8.13;;
44862;SDS011;30597;49.628;10.850;2022-12-29T00:13:58;8.10;;;7.30;;
44862;SDS011;30597;49.628;10.850;2022-12-29T00:16:43;8.50;;;7.67;;
44862;SDS011;30597;49.628;10.850;2022-12-29T00:19:10;8.60;;;7.70;;
44862;SDS011;30597;49.628;10.850;2022-12-29T00:21:55;8.30;;;7.50;;
44862;SDS011;30597;49.628;10.850;2022-12-29T00:24:41;8.73;;;7.93;;
44862;SDS011;30597;49.628;10.850;2022-12-29T00:27:25;8.87;;;7.67;;
44862;SDS011;30597;49.628;10.850;2022-12-29T00:30:11;8.00;;;7.20;;
44862;SDS011;30597;49.628;10.850;2022-12-29T00:32:56;7.73;;;6.90;;
44862;SDS011;30597;49.628;10.850;2022-12-29T00:35:45;8.30;;;7.50;;
44862;SDS011;30597;49.628;10.850;2022-12-29T00:38:25;8.40;;;7.60;;
44862;SDS011;30597;49.628;10.850;2022-12-29T00:41:10;8.50;;;7.70;;
44862;SDS011;30597;49.628;10.850;2022-12-29T00:43:54;8.10;;;7.30;;
44862;SDS011;30597;49.628;10.850;2022-12-29T00:46:33;7.83;;;7.13;;
44862;SDS011;30597;49.628;10.850;2022-12-29T00:48:59;8.53;;;7.73;;
44862;SDS011;30597;49.628;10.850;2022-12-29T00:51:44;7.10;;;6.40;;
44862;SDS011;30597;49.628;10.850;2022-12-29T00:54:10;8.87;;;7.97;;
44862;SDS011;30597;49.628;10.850;2022-12-29T00:56:36;8.10;;;7.30;;
44862;SDS011;30597;49.628;10.850;2022-12-29T00:59:02;8.00;;;7.20;;
44862;SDS011;30597;49.628;10.850;2022-12-29T01:01:30;7.60;;;6.90;;
44862;SDS011;30597;49.628;10.850;2022-12-29T01:03:55;8.30;;;7.50;;
44862;SDS011;30597;49.628;10.850;2022-12-29T01:06:21;7.83;;;7.03;;
44862;SDS011;30597;49.628;10.850;2022-12-29T01:08:47;6.97;;;6.37;;
44862;SDS011;30597;49.628;10.850;2022-12-29T01:11:33;7.13;;;6.47;;
44862;SDS011;30597;49.628;10.850;2022-12-29T01:13:58;7.83;;;7.10;;
44862;SDS011;30597;49.628;10.850;2022-12-29T01:16:24;7.60;;;6.87;;
44862;SDS011;30597;49.628;10.850;2022-12-29T01:18:49;7.40;;;6.67;;
44862;SDS011;30597;49.628;10.850;2022-12-29T01:21:15;6.90;;;6.30;;
44862;SDS011;30597;49.628;10.850;2022-12-29T01:23:40;7.30;;;6.60;;
44862;SDS011;30597;49.628;10.850;2022-12-29T01:26:12;7.60;;;6.80;;
44862;SDS011;30597;49.628;10.850;2022-12-29T01:28:39;7.03;;;6.33;;
44862;SDS011;30597;49.628;10.850;2022-12-29T01:31:06;6.77;;;6.17;;
44862;SDS011;30597;49.628;10.850;2022-12-29T01:33:32;7.03;;;6.37;;
44862;SDS011;30597;49.628;10.850;2022-12-29T01:36:05;7.13;;;5.93;;
44862;SDS011;30597;49.628;10.850;2022-12-29T01:38:33;7.00;;;6.30;;
44862;SDS011;30597;49.628;10.850;2022-12-29T01:40:59;6.10;;;5.40;;
44862;SDS011;30597;49.628;10.850;2022-12-29T01:43:41;7.30;;;6.60;;
44862;SDS011;30597;49.628;10.850;2022-12-29T01:49:10;6.70;;;6.10;;
44862;SDS011;30597;49.628;10.850;2022-12-29T01:51:42;6.13;;;5.63;;
44862;SDS011;30597;49.628;10.850;2022-12-29T01:54:21;7.13;;;6.50;;
44862;SDS011;30597;49.628;10.850;2022-12-29T01:56:51;7.20;;;6.13;;
44862;SDS011;30597;49.628;10.850;2022-12-29T01:59:20;6.40;;;5.70;;
44862;SDS011;30597;49.628;10.850;2022-12-29T02:01:49;5.77;;;5.23;;
44862;SDS011;30597;49.628;10.850;2022-12-29T02:04:15;7.73;;;6.60;;
44862;SDS011;30597;49.628;10.850;2022-12-29T02:06:43;5.70;;;5.13;;
44862;SDS011;30597;49.628;10.850;2022-12-29T02:09:16;5.97;;;5.43;;
44862;SDS011;30597;49.628;10.850;2022-12-29T02:11:42;5.83;;;5.33;;
44862;SDS011;30597;49.628;10.850;2022-12-29T02:14:10;6.47;;;5.93;;
44862;SDS011;30597;49.628;10.850;2022-12-29T02:20:09;7.13;;;6.53;;
44862;SDS011;30597;49.628;10.850;2022-12-29T02:22:34;5.40;;;4.90;;
44862;SDS011;30597;49.628;10.850;2022-12-29T02:25:20;6.00;;;5.37;;
44862;SDS011;30597;49.628;10.850;2022-12-29T02:28:04;6.20;;;5.70;;
44862;SDS011;30597;49.628;10.850;2022-12-29T02:30:58;6.17;;;5.57;;
44862;SDS011;30597;49.628;10.850;2022-12-29T02:39:06;6.00;;;5.40;;
44862;SDS011;30597;49.628;10.850;2022-12-29T02:41:56;6.07;;;5.50;;
44862;SDS011;30597;49.628;10.850;2022-12-29T02:44:48;5.67;;;5.07;;
44862;SDS011;30597;49.628;10.850;2022-12-29T02:50:33;5.80;;;5.30;;
44862;SDS011;30597;49.628;10.850;2022-12-29T02:53:05;5.10;;;4.60;;
44862;SDS011;30597;49.628;10.850;2022-12-29T02:55:34;5.10;;;4.70;;
44862;SDS011;30597;49.628;10.850;2022-12-29T02:58:33;5.37;;;4.87;;
44862;SDS011;30597;49.628;10.850;2022-12-29T03:03:26;5.77;;;5.20;;
44862;SDS011;30597;49.628;10.850;2022-12-29T03:05:59;5.50;;;5.00;;
44862;SDS011;30597;49.628;10.850;2022-12-29T03:08:49;5.00;;;4.60;;
44862;SDS011;30597;49.628;10.850;2022-12-29T03:11:24;5.67;;;5.07;;
44862;SDS011;30597;49.628;10.850;2022-12-29T03:14:18;5.73;;;5.23;;
44862;SDS011;30597;49.628;10.850;2022-12-29T03:17:29;5.10;;;4.60;;
44862;SDS011;30597;49.628;10.850;2022-12-29T03:20:09;5.30;;;4.80;;
44862;SDS011;30597;49.628;10.850;2022-12-29T03:22:41;5.30;;;4.80;;
44862;SDS011;30597;49.628;10.850;2022-12-29T03:25:18;5.77;;;5.27;;
44862;SDS011;30597;49.628;10.850;2022-12-29T03:27:49;5.20;;;4.70;;
44862;SDS011;30597;49.628;10.850;2022-12-29T03:30:19;4.80;;;4.40;;
44862;SDS011;30597;49.628;10.850;2022-12-29T03:32:46;4.77;;;4.27;;
44862;SDS011;30597;49.628;10.850;2022-12-29T03:35:15;5.23;;;4.73;;
44862;SDS011;30597;49.628;10.850;2022-12-29T03:37:55;4.83;;;4.40;;
44862;SDS011;30597;49.628;10.850;2022-12-29T03:40:24;5.13;;;4.73;;
44862;SDS011;30597;49.628;10.850;2022-12-29T03:42:52;5.10;;;4.60;;
44862;SDS011;30597;49.628;10.850;2022-12-29T03:45:19;3.80;;;3.50;;
44862;SDS011;30597;49.628;10.850;2022-12-29T03:47:45;5.17;;;4.67;;
44862;SDS011;30597;49.628;10.850;2022-12-29T03:50:11;5.00;;;4.50;;
44862;SDS011;30597;49.628;10.850;2022-12-29T03:52:37;5.60;;;5.10;;
44862;SDS011;30597;49.628;10.850;2022-12-29T03:55:03;4.40;;;4.00;;
44862;SDS011;30597;49.628;10.850;2022-12-29T03:57:29;4.50;;;4.07;;
44862;SDS011;30597;49.628;10.850;2022-12-29T03:59:54;5.50;;;4.97;;
44862;SDS011;30597;49.628;10.850;2022-12-29T04:02:20;4.50;;;4.10;;
44862;SDS011;30597;49.628;10.850;2022-12-29T04:04:45;4.97;;;4.47;;
44862;SDS011;30597;49.628;10.850;2022-12-29T04:07:11;4.33;;;3.93;;
44862;SDS011;30597;49.628;10.850;2022-12-29T04:09:36;4.50;;;4.10;;
44862;SDS011;30597;49.628;10.850;2022-12-29T04:12:02;4.47;;;4.00;;
44862;SDS011;30597;49.628;10.850;2022-12-29T04:14:28;5.27;;;4.77;;
44862;SDS011;30597;49.628;10.850;2022-12-29T04:16:53;4.57;;;4.00;;
44862;SDS011;30597;49.628;10.850;2022-12-29T04:19:19;3.87;;;3.57;;
44862;SDS011;30597;49.628;10.850;2022-12-29T04:21:44;4.00;;;3.70;;
44862;SDS011;30597;49.628;10.850;2022-12-29T04:24:10;4.40;;;4.00;;
44862;SDS011;30597;49.628;10.850;2022-12-29T04:26:35;4.80;;;4.37;;
44862;SDS011;30597;49.628;10.850;2022-12-29T04:29:01;4.10;;;3.80;;
44862;SDS011;30597;49.628;10.850;2022-12-29T04:31:26;4.13;;;3.73;;
44862;SDS011;30597;49.628;10.850;2022-12-29T04:33:52;4.73;;;4.33;;
44862;SDS011;30597;49.628;10.850;2022-12-29T04:36:17;3.70;;;3.40;;
44862;SDS011;30597;49.628;10.850;2022-12-29T04:38:43;4.20;;;3.80;;
44862;SDS011;30597;49.628;10.850;2022-12-29T04:41:08;4.50;;;4.10;;
44862;SDS011;30597;49.628;10.850;2022-12-29T04:43:34;4.10;;;3.70;;
44862;SDS011;30597;49.628;10.850;2022-12-29T04:45:59;4.40;;;4.00;;
44862;SDS011;30597;49.628;10.850;2022-12-29T04:48:25;4.13;;;3.73;;
44862;SDS011;30597;49.628;10.850;2022-12-29T04:50:50;3.70;;;3.40;;
44862;SDS011;30597;49.628;10.850;2022-12-29T04:53:16;4.23;;;3.83;;
44862;SDS011;30597;49.628;10.850;2022-12-29T04:55:42;4.37;;;3.73;;
44862;SDS011;30597;49.628;10.850;2022-12-29T04:58:08;3.77;;;3.40;;
44862;SDS011;30597;49.628;10.850;2022-12-29T05:00:33;3.00;;;2.80;;
44862;SDS011;30597;49.628;10.850;2022-12-29T05:02:59;3.97;;;3.63;;
44862;SDS011;30597;49.628;10.850;2022-12-29T05:05:25;3.80;;;3.33;;
44862;SDS011;30597;49.628;10.850;2022-12-29T05:07:51;4.13;;;3.80;;
44862;SDS011;30597;49.628;10.850;2022-12-29T05:10:16;3.00;;;2.63;;
44862;SDS011;30597;49.628;10.850;2022-12-29T05:12:42;3.20;;;2.90;;
44862;SDS011;30597;49.628;10.850;2022-12-29T05:15:08;2.93;;;2.73;;
44862;SDS011;30597;49.628;10.850;2022-12-29T05:17:34;3.67;;;3.37;;
44862;SDS011;30597;49.628;10.850;2022-12-29T05:20:00;4.40;;;4.00;;
44862;SDS011;30597;49.628;10.850;2022-12-29T05:22:26;4.30;;;3.80;;
44862;SDS011;30597;49.628;10.850;2022-12-29T05:24:51;3.17;;;2.83;;
44862;SDS011;30597;49.628;10.850;2022-12-29T05:27:17;3.50;;;3.20;;
44862;SDS011;30597;49.628;10.850;2022-12-29T05:29:42;3.70;;;3.40;;
44862;SDS011;30597;49.628;10.850;2022-12-29T05:32:08;3.57;;;3.27;;
44862;SDS011;30597;49.628;10.850;2022-12-29T05:34:33;3.97;;;3.67;;
44862;SDS011;30597;49.628;10.850;2022-12-29T05:36:59;3.10;;;2.80;;
44862;SDS011;30597;49.628;10.850;2022-12-29T05:39:24;3.50;;;3.20;;
44862;SDS011;30597;49.628;10.850;2022-12-29T05:41:50;3.27;;;2.97;;
44862;SDS011;30597;49.628;10.850;2022-12-29T05:44:15;3.40;;;3.10;;
44862;SDS011;30597;49.628;10.850;2022-12-29T05:46:41;3.73;;;3.27;;
44862;SDS011;30597;49.628;10.850;2022-12-29T05:49:06;3.10;;;2.87;;
44862;SDS011;30597;49.628;10.850;2022-12-29T05:51:32;4.10;;;3.80;;
44862;SDS011;30597;49.628;10.850;2022-12-29T05:53:57;3.87;;;3.27;;
44862;SDS011;30597;49.628;10.850;2022-12-29T05:56:23;3.20;;;2.90;;
44862;SDS011;30597;49.628;10.850;2022-12-29T05:58:48;3.60;;;3.00;;
44862;SDS011;30597;49.628;10.850;2022-12-29T06:01:14;3.17;;;2.87;;
44862;SDS011;30597;49.628;10.850;2022-12-29T06:03:39;3.53;;;3.20;;
44862;SDS011;30597;49.628;10.850;2022-12-29T06:06:05;3.20;;;2.80;;
44862;SDS011;30597;49.628;10.850;2022-12-29T06:08:31;3.57;;;3.27;;
44862;SDS011;30597;49.628;10.850;2022-12-29T06:10:56;3.20;;;2.70;;
44862;SDS011;30597;49.628;10.850;2022-12-29T06:13:22;3.20;;;2.90;;
44862;SDS011;30597;49.628;10.850;2022-12-29T06:15:48;2.93;;;2.73;;
44862;SDS011;30597;49.628;10.850;2022-12-29T06:18:14;2.90;;;2.70;;
44862;SDS011;30597;49.628;10.850;2022-12-29T06:20:40;3.60;;;3.20;;
44862;SDS011;30597;49.628;10.850;2022-12-29T06:23:05;3.50;;;3.20;;
44862;SDS011;30597;49.628;10.850;2022-12-29T06:25:31;3.30;;;3.00;;
44862;SDS011;30597;49.628;10.850;2022-12-29T06:27:58;2.80;;;2.60;;
44862;SDS011;30597;49.628;10.850;2022-12-29T06:30:24;6.57;;;3.17;;
44862;SDS011;30597;49.628;10.850;2022-12-29T06:32:49;3.03;;;2.73;;
44862;SDS011;30597;49.628;10.850;2022-12-29T06:35:16;3.47;;;3.17;;
44862;SDS011;30597;49.628;10.850;2022-12-29T06:37:41;2.83;;;2.53;;
44862;SDS011;30597;49.628;10.850;2022-12-29T06:40:08;3.03;;;2.73;;
44862;SDS011;30597;49.628;10.850;2022-12-29T06:42:34;3.10;;;2.80;;
44862;SDS011;30597;49.628;10.850;2022-12-29T06:44:59;2.43;;;2.23;;
44862;SDS011;30597;49.628;10.850;2022-12-29T06:47:25;3.80;;;2.30;;
44862;SDS011;30597;49.628;10.850;2022-12-29T06:49:51;2.87;;;2.40;;
44862;SDS011;30597;49.628;10.850;2022-12-29T06:52:16;2.23;;;2.00;;
44862;SDS011;30597;49.628;10.850;2022-12-29T06:54:42;2.70;;;2.40;;
44862;SDS011;30597;49.628;10.850;2022-12-29T06:57:07;3.10;;;2.83;;
44862;SDS011;30597;49.628;10.850;2022-12-29T06:59:33;2.30;;;2.07;;
44862;SDS011;30597;49.628;10.850;2022-12-29T07:01:59;2.87;;;2.60;;
44862;SDS011;30597;49.628;10.850;2022-12-29T07:04:26;2.93;;;2.60;;
44862;SDS011;30597;49.628;10.850;2022-12-29T07:06:52;3.17;;;2.87;;
44862;SDS011;30597;49.628;10.850;2022-12-29T07:09:18;2.67;;;2.00;;
44862;SDS011;30597;49.628;10.850;2022-12-29T07:11:44;2.43;;;2.23;;
44862;SDS011;30597;49.628;10.850;2022-12-29T07:14:10;2.57;;;2.37;;
44862;SDS011;30597;49.628;10.850;2022-12-29T07:16:36;2.73;;;2.20;;
44862;SDS011;30597;49.628;10.850;2022-12-29T07:19:01;2.63;;;2.30;;
44862;SDS011;30597;49.628;10.850;2022-12-29T07:21:27;2.20;;;2.00;;
44862;SDS011;30597;49.628;10.850;2022-12-29T07:23:53;2.80;;;2.40;;
44862;SDS011;30597;49.628;10.850;2022-12-29T07:26:19;2.50;;;2.30;;
44862;SDS011;30597;49.628;10.850;2022-12-29T07:28:45;3.10;;;2.50;;
44862;SDS011;30597;49.628;10.850;2022-12-29T07:31:14;2.80;;;2.60;;
44862;SDS011;30597;49.628;10.850;2022-12-29T07:33:41;4.27;;;2.53;;
44862;SDS011;30597;49.628;10.850;2022-12-29T07:36:08;2.63;;;2.40;;
44862;SDS011;30597;49.628;10.850;2022-12-29T07:38:34;2.20;;;2.00;;
44862;SDS011;30597;49.628;10.850;2022-12-29T07:41:00;2.33;;;2.13;;
44862;SDS011;30597;49.628;10.850;2022-12-29T07:43:25;2.30;;;2.00;;
44862;SDS011;30597;49.628;10.850;2022-12-29T07:45:51;3.27;;;2.30;;
44862;SDS011;30597;49.628;10.850;2022-12-29T07:48:16;2.53;;;2.10;;
44862;SDS011;30597;49.628;10.850;2022-12-29T07:50:42;2.40;;;2.20;;
44862;SDS011;30597;49.628;10.850;2022-12-29T07:53:07;2.47;;;1.80;;
44862;SDS011;30597;49.628;10.850;2022-12-29T07:55:33;2.50;;;2.07;;
44862;SDS011;30597;49.628;10.850;2022-12-29T07:57:59;2.30;;;2.10;;
44862;SDS011;30597;49.628;10.850;2022-12-29T08:00:24;2.10;;;1.90;;
44862;SDS011;30597;49.628;10.850;2022-12-29T08:02:50;2.60;;;2.40;;
44862;SDS011;30597;49.628;10.850;2022-12-29T08:05:16;2.20;;;2.00;;
44862;SDS011;30597;49.628;10.850;2022-12-29T08:07:42;5.50;;;2.47;;
44862;SDS011;30597;49.628;10.850;2022-12-29T08:10:09;3.00;;;2.33;;
44862;SDS011;30597;49.628;10.850;2022-12-29T08:12:34;2.50;;;2.10;;
44862;SDS011;30597;49.628;10.850;2022-12-29T08:15:00;3.20;;;2.00;;
44862;SDS011;30597;49.628;10.850;2022-12-29T08:17:25;2.43;;;2.20;;
44862;SDS011;30597;49.628;10.850;2022-12-29T08:19:51;6.30;;;2.13;;
44862;SDS011;30597;49.628;10.850;2022-12-29T08:22:16;2.37;;;2.17;;
44862;SDS011;30597;49.628;10.850;2022-12-29T08:24:42;4.93;;;2.10;;
44862;SDS011;30597;49.628;10.850;2022-12-29T08:27:07;4.50;;;2.90;;
44862;SDS011;30597;49.628;10.850;2022-12-29T08:29:33;10.33;;;2.47;;
44862;SDS011;30597;49.628;10.850;2022-12-29T08:31:58;2.40;;;2.10;;
44862;SDS011;30597;49.628;10.850;2022-12-29T08:34:24;9.73;;;3.30;;
44862;SDS011;30597;49.628;10.850;2022-12-29T08:36:49;3.20;;;2.90;;
44862;SDS011;30597;49.628;10.850;2022-12-29T08:39:15;7.10;;;3.80;;
44862;SDS011;30597;49.628;10.850;2022-12-29T08:41:41;3.50;;;3.20;;
44862;SDS011;30597;49.628;10.850;2022-12-29T08:44:06;6.13;;;3.23;;
44862;SDS011;30597;49.628;10.850;2022-12-29T08:46:32;5.93;;;4.13;;
44862;SDS011;30597;49.628;10.850;2022-12-29T08:48:58;5.10;;;3.20;;
44862;SDS011;30597;49.628;10.850;2022-12-29T08:51:23;5.57;;;3.47;;
44862;SDS011;30597;49.628;10.850;2022-12-29T08:53:49;4.57;;;3.23;;
44862;SDS011;30597;49.628;10.850;2022-12-29T08:56:15;3.43;;;3.13;;
44862;SDS011;30597;49.628;10.850;2022-12-29T08:58:41;3.97;;;3.07;;
44862;SDS011;30597;49.628;10.850;2022-12-29T09:01:06;4.03;;;3.63;;
44862;SDS011;30597;49.628;10.850;2022-12-29T09:03:32;3.73;;;3.43;;
44862;SDS011;30597;49.628;10.850;2022-12-29T09:05:57;3.90;;;3.60;;
44862;SDS011;30597;49.628;10.850;2022-12-29T09:08:23;3.80;;;3.40;;
44862;SDS011;30597;49.628;10.850;2022-12-29T09:10:49;4.63;;;3.10;;
44862;SDS011;30597;49.628;10.850;2022-12-29T09:13:15;3.63;;;3.33;;
44862;SDS011;30597;49.628;10.850;2022-12-29T09:15:41;4.00;;;3.70;;
44862;SDS011;30597;49.628;10.850;2022-12-29T09:18:07;3.73;;;3.27;;
44862;SDS011;30597;49.628;10.850;2022-12-29T09:20:34;3.60;;;3.30;;
44862;SDS011;30597;49.628;10.850;2022-12-29T09:23:00;3.87;;;3.47;;
44862;SDS011;30597;49.628;10.850;2022-12-29T09:25:26;4.70;;;3.90;;
44862;SDS011;30597;49.628;10.850;2022-12-29T09:27:52;3.20;;;2.90;;
44862;SDS011;30597;49.628;10.850;2022-12-29T09:30:19;3.40;;;3.10;;
44862;SDS011;30597;49.628;10.850;2022-12-29T09:32:46;3.43;;;3.10;;
44862;SDS011;30597;49.628;10.850;2022-12-29T09:35:12;3.30;;;3.00;;
44862;SDS011;30597;49.628;10.850;2022-12-29T09:37:39;3.43;;;3.13;;
44862;SDS011;30597;49.628;10.850;2022-12-29T09:40:04;4.80;;;3.20;;
44862;SDS011;30597;49.628;10.850;2022-12-29T09:42:42;3.80;;;3.43;;
44862;SDS011;30597;49.628;10.850;2022-12-29T09:45:20;3.73;;;3.07;;
44862;SDS011;30597;49.628;10.850;2022-12-29T09:47:54;3.50;;;3.07;;
44862;SDS011;30597;49.628;10.850;2022-12-29T09:50:24;3.07;;;2.77;;
44862;SDS011;30597;49.628;10.850;2022-12-29T09:52:55;3.23;;;2.77;;
44862;SDS011;30597;49.628;10.850;2022-12-29T09:55:36;3.30;;;3.00;;
44862;SDS011;30597;49.628;10.850;2022-12-29T09:58:14;3.50;;;3.20;;
44862;SDS011;30597;49.628;10.850;2022-12-29T10:00:56;3.20;;;2.87;;
44862;SDS011;30597;49.628;10.850;2022-12-29T10:03:35;4.40;;;3.20;;
44862;SDS011;30597;49.628;10.850;2022-12-29T10:06:13;2.93;;;2.53;;
44862;SDS011;30597;49.628;10.850;2022-12-29T10:08:48;3.40;;;3.10;;
44862;SDS011;30597;49.628;10.850;2022-12-29T10:11:40;3.30;;;2.30;;
44862;SDS011;30597;49.628;10.850;2022-12-29T10:14:35;3.50;;;3.20;;
44862;SDS011;30597;49.628;10.850;2022-12-29T10:20:33;3.63;;;2.90;;
44862;SDS011;30597;49.628;10.850;2022-12-29T10:23:22;3.00;;;2.80;;
44862;SDS011;30597;49.628;10.850;2022-12-29T10:26:12;3.40;;;3.10;;
44862;SDS011;30597;49.628;10.850;2022-12-29T10:28:55;2.80;;;2.60;;
44862;SDS011;30597;49.628;10.850;2022-12-29T10:31:33;3.10;;;2.90;;
44862;SDS011;30597;49.628;10.850;2022-12-29T10:34:07;3.20;;;2.53;;
44862;SDS011;30597;49.628;10.850;2022-12-29T10:36:41;3.90;;;3.40;;
44862;SDS011;30597;49.628;10.850;2022-12-29T10:39:19;2.70;;;2.50;;
44862;SDS011;30597;49.628;10.850;2022-12-29T10:42:17;3.00;;;2.80;;
44862;SDS011;30597;49.628;10.850;2022-12-29T10:44:46;2.97;;;2.70;;
44862;SDS011;30597;49.628;10.850;2022-12-29T10:47:14;3.23;;;2.93;;
44862;SDS011;30597;49.628;10.850;2022-12-29T10:49:44;3.27;;;2.97;;
44862;SDS011;30597;49.628;10.850;2022-12-29T10:52:12;2.90;;;2.70;;
44862;SDS011;30597;49.628;10.850;2022-12-29T10:54:47;6.00;;;2.93;;
44862;SDS011;30597;49.628;10.850;2022-12-29T10:57:22;3.50;;;3.20;;
44862;SDS011;30597;49.628;10.850;2022-12-29T10:59:53;3.27;;;2.97;;
44862;SDS011;30597;49.628;10.850;2022-12-29T11:07:24;3.23;;;2.93;;
44862;SDS011;30597;49.628;10.850;2022-12-29T11:09:51;2.60;;;2.40;;
44862;SDS011;30597;49.628;10.850;2022-12-29T11:12:21;3.87;;;3.57;;
44862;SDS011;30597;49.628;10.850;2022-12-29T11:20:36;4.33;;;3.93;;
44862;SDS011;30597;49.628;10.850;2022-12-29T11:23:04;5.43;;;3.57;;
44862;SDS011;30597;49.628;10.850;2022-12-29T11:28:31;3.90;;;3.50;;
44862;SDS011;30597;49.628;10.850;2022-12-29T11:31:01;4.23;;;3.83;;
44862;SDS011;30597;49.628;10.850;2022-12-29T11:33:29;4.13;;;3.73;;
44862;SDS011;30597;49.628;10.850;2022-12-29T11:35:58;3.90;;;3.60;;
44862;SDS011;30597;49.628;10.850;2022-12-29T11:38:31;4.30;;;3.90;;
44862;SDS011;30597;49.628;10.850;2022-12-29T11:41:00;3.80;;;3.40;;
44862;SDS011;30597;49.628;10.850;2022-12-29T11:43:29;5.57;;;4.50;;
44862;SDS011;30597;49.628;10.850;2022-12-29T11:45:58;4.90;;;4.10;;
44862;SDS011;30597;49.628;10.850;2022-12-29T11:48:25;4.00;;;3.63;;
44862;SDS011;30597;49.628;10.850;2022-12-29T11:50:57;3.87;;;3.57;;
44862;SDS011;30597;49.628;10.850;2022-12-29T11:53:28;4.67;;;4.13;;
44862;SDS011;30597;49.628;10.850;2022-12-29T11:56:08;4.57;;;4.17;;
44862;SDS011;30597;49.628;10.850;2022-12-29T11:58:37;4.43;;;4.03;;
44862;SDS011;30597;49.628;10.850;2022-12-29T12:03:47;4.83;;;4.10;;
44862;SDS011;30597;49.628;10.850;2022-12-29T12:06:41;5.57;;;4.17;;
44862;SDS011;30597;49.628;10.850;2022-12-29T12:09:16;5.73;;;5.13;;
44862;SDS011;30597;49.628;10.850;2022-12-29T12:11:47;4.83;;;4.33;;
44862;SDS011;30597;49.628;10.850;2022-12-29T12:14:22;5.40;;;4.90;;
44862;SDS011;30597;49.628;10.850;2022-12-29T12:16:53;4.27;;;3.93;;
44862;SDS011;30597;49.628;10.850;2022-12-29T12:22:04;4.40;;;4.00;;
44862;SDS011;30597;49.628;10.850;2022-12-29T12:24:45;4.60;;;4.20;;
44862;SDS011;30597;49.628;10.850;2022-12-29T12:27:31;5.00;;;4.13;;
44862;SDS011;30597;49.628;10.850;2022-12-29T12:38:33;5.17;;;4.23;;
44862;SDS011;30597;49.628;10.850;2022-12-29T12:41:13;5.77;;;4.00;;
44862;SDS011;30597;49.628;10.850;2022-12-29T12:49:50;4.30;;;3.80;;
44862;SDS011;30597;49.628;10.850;2022-12-29T12:52:37;4.20;;;3.80;;
44862;SDS011;30597;49.628;10.850;2022-12-29T12:55:30;4.23;;;3.60;;
44862;SDS011;30597;49.628;10.850;2022-12-29T13:01:01;4.30;;;4.00;;
44862;SDS011;30597;49.628;10.850;2022-12-29T13:04:14;3.67;;;3.30;;
44862;SDS011;30597;49.628;10.850;2022-12-29T13:10:05;4.17;;;3.77;;
44862;SDS011;30597;49.628;10.850;2022-12-29T13:12:48;3.83;;;3.53;;
44862;SDS011;30597;49.628;10.850;2022-12-29T13:21:17;3.87;;;3.40;;
44862;SDS011;30597;49.628;10.850;2022-12-29T13:23:47;4.10;;;3.53;;
44862;SDS011;30597;49.628;10.850;2022-12-29T13:26:29;3.90;;;3.00;;
44862;SDS011;30597;49.628;10.850;2022-12-29T13:32:17;3.90;;;3.60;;
44862;SDS011;30597;49.628;10.850;2022-12-29T13:35:03;4.20;;;3.47;;
44862;SDS011;30597;49.628;10.850;2022-12-29T13:37:45;4.17;;;3.83;;
44862;SDS011;30597;49.628;10.850;2022-12-29T13:40:26;4.40;;;3.30;;
44862;SDS011;30597;49.628;10.850;2022-12-29T13:42:59;4.93;;;4.47;;
44862;SDS011;30597;49.628;10.850;2022-12-29T13:45:26;3.90;;;3.50;;
44862;SDS011;30597;49.628;10.850;2022-12-29T13:48:02;4.70;;;4.13;;
44862;SDS011;30597;49.628;10.850;2022-12-29T13:50:45;4.13;;;3.73;;
44862;SDS011;30597;49.628;10.850;2022-12-29T13:58:50;4.87;;;4.37;;
44862;SDS011;30597;49.628;10.850;2022-12-29T14:01:22;4.77;;;4.20;;
44862;SDS011;30597;49.628;10.850;2022-12-29T14:03:55;5.60;;;3.83;;
44862;SDS011;30597;49.628;10.850;2022-12-29T14:06:26;3.90;;;3.40;;
44862;SDS011;30597;49.628;10.850;2022-12-29T14:11:44;6.07;;;4.90;;
44862;SDS011;30597;49.628;10.850;2022-12-29T14:14:16;5.23;;;4.10;;
44862;SDS011;30597;49.628;10.850;2022-12-29T14:16:52;5.87;;;4.43;;
44862;SDS011;30597;49.628;10.850;2022-12-29T14:19:29;6.40;;;4.63;;
44862;SDS011;30597;49.628;10.850;2022-12-29T14:22:00;6.00;;;4.03;;
44862;SDS011;30597;49.628;10.850;2022-12-29T14:26:59;6.90;;;4.00;;
44862;SDS011;30597;49.628;10.850;2022-12-29T14:31:54;6.30;;;4.20;;
44862;SDS011;30597;49.628;10.850;2022-12-29T14:42:03;6.40;;;5.07;;
44862;SDS011;30597;49.628;10.850;2022-12-29T14:44:29;4.60;;;4.20;;
44862;SDS011;30597;49.628;10.850;2022-12-29T14:46:56;5.10;;;4.60;;
44862;SDS011;30597;49.628;10.850;2022-12-29T14:49:27;4.77;;;4.27;;
44862;SDS011;30597;49.628;10.850;2022-12-29T14:52:04;4.80;;;4.30;;
44862;SDS011;30597;49.628;10.850;2022-12-29T14:54:57;5.30;;;3.93;;
44862;SDS011;30597;49.628;10.850;2022-12-29T14:57:35;4.80;;;4.30;;
44862;SDS011;30597;49.628;10.850;2022-12-29T15:00:08;4.70;;;4.10;;
44862;SDS011;30597;49.628;10.850;2022-12-29T15:02:50;4.30;;;3.60;;
44862;SDS011;30597;49.628;10.850;2022-12-29T15:05:34;4.70;;;4.20;;
44862;SDS011;30597;49.628;10.850;2022-12-29T15:08:00;4.90;;;4.40;;
44862;SDS011;30597;49.628;10.850;2022-12-29T15:10:30;4.83;;;4.13;;
44862;SDS011;30597;49.628;10.850;2022-12-29T15:13:14;4.60;;;4.20;;
44862;SDS011;30597;49.628;10.850;2022-12-29T15:15:46;4.63;;;4.23;;
44862;SDS011;30597;49.628;10.850;2022-12-29T15:18:13;4.23;;;3.70;;
44862;SDS011;30597;49.628;10.850;2022-12-29T15:21:00;4.77;;;4.10;;
44862;SDS011;30597;49.628;10.850;2022-12-29T15:23:30;4.33;;;3.93;;
44862;SDS011;30597;49.628;10.850;2022-12-29T15:26:04;4.57;;;4.17;;
44862;SDS011;30597;49.628;10.850;2022-12-29T15:28:39;4.40;;;3.80;;
44862;SDS011;30597;49.628;10.850;2022-12-29T15:31:10;4.70;;;4.17;;
44862;SDS011;30597;49.628;10.850;2022-12-29T15:33:43;5.57;;;3.90;;
44862;SDS011;30597;49.628;10.850;2022-12-29T15:36:13;4.47;;;3.83;;
44862;SDS011;30597;49.628;10.850;2022-12-29T15:38:44;5.17;;;3.73;;
44862;SDS011;30597;49.628;10.850;2022-12-29T15:41:24;4.53;;;3.70;;
44862;SDS011;30597;49.628;10.850;2022-12-29T15:43:57;5.10;;;4.53;;
44862;SDS011;30597;49.628;10.850;2022-12-29T15:46:36;5.00;;;4.50;;
44862;SDS011;30597;49.628;10.850;2022-12-29T15:49:06;5.00;;;4.30;;
44862;SDS011;30597;49.628;10.850;2022-12-29T15:51:35;5.90;;;5.30;;
44862;SDS011;30597;49.628;10.850;2022-12-29T15:54:02;5.20;;;4.57;;
44862;SDS011;30597;49.628;10.850;2022-12-29T15:56:28;5.83;;;5.30;;
44862;SDS011;30597;49.628;10.850;2022-12-29T15:58:55;5.40;;;4.80;;
44862;SDS011;30597;49.628;10.850;2022-12-29T16:01:27;5.57;;;4.93;;
44862;SDS011;30597;49.628;10.850;2022-12-29T16:03:56;5.03;;;4.47;;
44862;SDS011;30597;49.628;10.850;2022-12-29T16:06:26;6.47;;;5.23;;
44862;SDS011;30597;49.628;10.850;2022-12-29T16:08:59;5.20;;;4.70;;
44862;SDS011;30597;49.628;10.850;2022-12-29T16:11:31;5.90;;;5.30;;
44862;SDS011;30597;49.628;10.850;2022-12-29T16:14:00;5.37;;;4.87;;
44862;SDS011;30597;49.628;10.850;2022-12-29T16:16:31;6.80;;;5.30;;
44862;SDS011;30597;49.628;10.850;2022-12-29T16:19:47;5.77;;;4.93;;
44862;SDS011;30597;49.628;10.850;2022-12-29T16:21:51;5.70;;;5.00;;
44862;SDS011;30597;49.628;10.850;2022-12-29T16:24:18;5.53;;;5.03;;
44862;SDS011;30597;49.628;10.850;2022-12-29T16:26:50;5.23;;;4.70;;